Thursday, June 30, 2016
21:15 UTC
  |  Log In   |  Register Free
Airport Search:

Pike County-Hatcher Field Airport
(KPBX)

Pike County-Hatcher Field Airport Diagram
No Airport Diagram Available

FAA data valid effective May 26 2016 - Jul 21 2016 (unless otherwise noted).

 
 
 
 
 
 
 
 
 
 
 
 
 
 
Current Aviation Weather for KPBX

Weather Summary


Current weather conditions are not available for PBX - The nearest NOAA weather station is at SJS, (11.8 nm NW from PBX)

The most recent METAR observation for PBX was updated at: 12:55 UTC
METAR for KPBX is not available. Closest METAR is for KSJS
KPBX  (most recent observation was updatred at 30:20 UTC)
302055Z AUTO 33003KT 10SM CLR 26/14 A3003 RMK AO2 T02620144

KSJS  (11.8 nm SE)   (most recent observation was updated at 30:20 UTC)
302055Z AUTO 21003KT 10SM CLR 27/14 A3002 RMK AO2 T02660137

KLNP  (34.5 nm NW)   (most recent observation was updated at 30:20 UTC)
302055Z AUTO 35006KT 10SM SCT065 25/11 A3009 RMK AO2

TAF for KPBX is not available.
KSJS  (11.8 nm SE)   (most recent observation was updatred at 30:17 UTC)
301730Z 3018/0118 VRB05KT P6SM SCT040


GlobalAir.com is loading additional information.
 Current Weather at LNP
77.0 F° (25.0 C°)

Northeast winds at 4.6 mph
Pressure:
30.09 in
Humidity:
42%
Wind:
Northeast at 4.6 mph
Dew Point:
51.8 F° (11.0 C°)
Visibility:
10.00 mi
PBX NOAA Radar




Find All Airport Services Find A Hotel Find A Rental Car Find A Golf Course Find A Restaurant $100 Hamburger



Airport Weather Forecast for KPBX

Translated METAR for KPBX (2055 UTC)
METAR:
KPBX 302055Z AUTO 33003KT 10SM CLR 26/14 A3003 RMK AO2 T02620144
Conditions at:
KPBX (Pike County-Hatcher Field, KY) observed 2055 UTC 30 June 2016
Temperature:
26°C (78.8°F)
Dewpoint:
14°C (57.2°F) [RH = 47.6]
Pressure:
30.03 inches Hg (1016.9 mb)
Winds:
from the NNW (330 degrees) at 3.5 mph (3 knots: 1.5 m/s)
Visibility:
10 mile(s)
Ceiling:
at least 12,000 feet AGL
Clouds:
Clear below 12,000 feet AGL
Remarks:
site is un-manned
site is automated and HAS a precipitation sensor

Translated TAF for KSJS (Big Sandy Rgnl, KY) (1730 UTC)
TAF text:
KSJS 301730Z 3018/0118 VRB05KT P6SM SCT040
Forecast period:
Thursday Jun 30 2016 18:00 UTC - Thursday Jun 30 2016 18:00 UTC
Forecast type:
FROM: standard forecast or significant change
Winds:
variable wind direction at 5.8 mph (5 knots: 2.6 m/s)
Visibility:
6 or more mile(s) (9.7+ km)
Ceiling:
at least 12,000 feet AGL
Clouds:
Scattered Clouds at 4,000 feet AGL
Weather:
no significant weather observed at this time
FBO's on the Field
FBO Company Facility Photos Services Transportation Aviation Fuel Prices: Prices include tax
Catering Weather Repair Courtesy Rental Type 100LL JetA JetA+ MOGAS 8087
 
Pikeville-Pike Airport

This FBO has not yet been rated
FS:Shell
Last Updated: May-31
Login to update fuel prices
SS:
Contact Pikeville-Pike AirportMore FBO Information
 
Add another FBO Facility Photos Catering Weather Repair Courtesy Rental Type 100LL JetA JetA+ MOGAS 8087
Services Transportation Aviation Fuel Prices: Prices include tax


model-print
model-print
model-print
model-print